Time;durP1;ratioP1;P1;durP2;ratioP2;P2;SDS_P1;SDS_P2;PMS_P1;PMS_P2;Temp;Humidity;BMP_temperature;BMP_pressure;BME280_temperature;BME280_humidity;BME280_pressure;Samples;Min_cycle;Max_cycle;Signal;HPM_P1;HPM_P2
2021/07/29 00:02:09;;;;;;;9.02;4.55;;;14.40;99.90;;;;;;4964020;28;20051;-73
2021/07/29 00:04:35;;;;;;;6.88;4.85;;;14.40;99.90;;;;;;4975004;28;20060;-73
2021/07/29 00:07:02;;;;;;;5.57;3.97;;;14.40;99.90;;;;;;4984553;28;20216;-73
2021/07/29 00:09:29;;;;;;;6.68;4.68;;;14.40;99.90;;;;;;4983858;28;20069;-73
2021/07/29 00:11:56;;;;;;;4.65;4.20;;;14.50;99.90;;;;;;4969909;28;20053;-73
2021/07/29 00:14:22;;;;;;;10.68;3.65;;;14.60;99.90;;;;;;4970536;28;20050;-73
2021/07/29 00:16:51;;;;;;;6.13;4.97;;;14.60;99.90;;;;;;4982191;28;20042;-72
2021/07/29 00:19:18;;;;;;;7.22;3.85;;;14.70;99.90;;;;;;4984195;28;20092;-73
2021/07/29 00:21:45;;;;;;;7.25;3.90;;;14.90;99.90;;;;;;4983933;28;20046;-73
2021/07/29 00:24:12;;;;;;;6.90;4.32;;;14.90;99.90;;;;;;4982515;28;20050;-73
2021/07/29 00:26:40;;;;;;;7.00;4.30;;;15.10;99.90;;;;;;4965826;28;20486;-73
2021/07/29 00:29:07;;;;;;;6.65;4.03;;;15.10;99.90;;;;;;4965014;28;20038;-73
2021/07/29 00:31:35;;;;;;;7.93;5.00;;;15.30;99.90;;;;;;4963912;28;20051;-73
2021/07/29 00:34:03;;;;;;;6.53;4.32;;;15.40;99.90;;;;;;4965318;28;20631;-73
2021/07/29 00:36:32;;;;;;;9.00;4.95;;;15.50;99.90;;;;;;4964381;28;20089;-73
2021/07/29 00:38:59;;;;;;;6.38;3.88;;;15.60;99.90;;;;;;4965532;28;20047;-73
2021/07/29 00:41:25;;;;;;;7.20;4.57;;;15.70;99.90;;;;;;4972612;28;20046;-73
2021/07/29 00:44:03;;;;;;;8.23;4.07;;;15.70;99.90;;;;;;4964721;28;20051;-73
2021/07/29 00:46:32;;;;;;;8.30;4.78;;;15.70;99.90;;;;;;4978590;28;20109;-73
2021/07/29 00:49:04;;;;;;;6.30;4.55;;;15.80;99.90;;;;;;4967772;28;20046;-73
2021/07/29 00:51:33;;;;;;;6.22;4.68;;;15.80;99.90;;;;;;4982535;28;20518;-73
2021/07/29 00:54:01;;;;;;;7.82;4.97;;;15.80;99.90;;;;;;4984754;28;20530;-73
2021/07/29 00:56:29;;;;;;;5.97;4.45;;;15.80;99.90;;;;;;4980482;28;20085;-73
2021/07/29 00:58:56;;;;;;;6.97;4.85;;;15.80;99.90;;;;;;4984747;28;20046;-73
2021/07/29 01:01:23;;;;;;;6.63;4.45;;;15.90;99.90;;;;;;4984320;28;20553;-73
2021/07/29 01:03:50;;;;;;;4.55;4.13;;;15.90;99.90;;;;;;4985604;28;20058;-74
2021/07/29 01:06:17;;;;;;;6.50;4.50;;;15.90;99.90;;;;;;4983042;28;20050;-73
2021/07/29 01:09:09;;;;;;;9.73;4.88;;;15.90;99.90;;;;;;4984328;28;20058;-73
2021/07/29 01:11:37;;;;;;;7.63;4.45;;;16.00;99.90;;;;;;4965500;28;20059;-73
2021/07/29 01:14:05;;;;;;;8.32;4.57;;;16.10;99.90;;;;;;4943616;28;20412;-73
2021/07/29 01:16:33;;;;;;;6.97;4.50;;;16.20;99.90;;;;;;4962022;28;20574;-73
2021/07/29 01:19:01;;;;;;;5.47;4.80;;;16.20;99.90;;;;;;4965343;28;20394;-73
2021/07/29 01:21:47;;;;;;;6.43;5.18;;;16.30;99.90;;;;;;4967006;28;20463;-73
2021/07/29 01:24:14;;;;;;;5.40;4.90;;;16.40;99.90;;;;;;4931212;28;20039;-72
2021/07/29 01:26:41;;;;;;;5.10;4.60;;;16.40;99.90;;;;;;4970056;28;20077;-73
2021/07/29 01:29:08;;;;;;;7.18;4.93;;;16.40;99.90;;;;;;4981723;28;20054;-73
2021/07/29 01:31:35;;;;;;;8.50;4.70;;;16.30;99.90;;;;;;4945563;28;20340;-72
2021/07/29 01:34:02;;;;;;;6.28;4.72;;;16.30;99.90;;;;;;4955196;28;20058;-73
2021/07/29 01:36:29;;;;;;;6.47;5.25;;;16.20;99.90;;;;;;4963766;28;20121;-73
2021/07/29 01:38:55;;;;;;;11.40;5.13;;;16.10;99.90;;;;;;4984298;28;20062;-73
2021/07/29 01:41:25;;;;;;;6.43;4.68;;;16.00;99.90;;;;;;4967715;28;20058;-73
2021/07/29 01:43:52;;;;;;;8.75;5.15;;;15.90;99.90;;;;;;4961029;28;20587;-73
2021/07/29 01:46:19;;;;;;;8.27;5.50;;;15.90;99.90;;;;;;4964363;28;20064;-73
2021/07/29 01:48:45;;;;;;;10.45;5.47;;;15.80;99.90;;;;;;4964514;28;20054;-74
2021/07/29 01:51:12;;;;;;;7.82;5.40;;;15.70;99.90;;;;;;4946941;28;20097;-74
2021/07/29 01:53:39;;;;;;;7.93;6.13;;;15.60;99.90;;;;;;4964517;28;20061;-75
2021/07/29 01:56:09;;;;;;;11.05;6.53;;;15.40;99.90;;;;;;4962786;28;20051;-75
2021/07/29 01:58:36;;;;;;;11.23;7.25;;;15.30;99.90;;;;;;4948431;28;20475;-76
2021/07/29 02:01:03;;;;;;;10.68;7.00;;;15.20;99.90;;;;;;4948373;28;20090;-75
2021/07/29 02:03:30;;;;;;;11.45;6.80;;;15.00;99.90;;;;;;4966768;28;20069;-74
2021/07/29 02:06:01;;;;;;;13.13;7.68;;;14.90;99.90;;;;;;4962152;28;20109;-75
2021/07/29 02:08:28;;;;;;;15.02;7.72;;;14.80;99.90;;;;;;4946680;28;20061;-75
2021/07/29 02:11:05;;;;;;;16.55;8.00;;;14.70;99.90;;;;;;4972228;28;20133;-74
2021/07/29 02:13:32;;;;;;;12.88;7.32;;;14.80;99.90;;;;;;4968947;28;20064;-74
2021/07/29 02:15:59;;;;;;;9.00;7.07;;;14.80;99.90;;;;;;4963765;28;20069;-75
2021/07/29 02:18:25;;;;;;;14.27;7.63;;;14.70;99.90;;;;;;4980484;28;20069;-74
2021/07/29 02:20:52;;;;;;;10.23;7.57;;;14.70;99.90;;;;;;4983456;28;20050;-74
2021/07/29 02:23:19;;;;;;;12.00;8.32;;;14.70;99.90;;;;;;4982803;28;20062;-75
2021/07/29 02:25:45;;;;;;;15.00;8.60;;;14.70;99.90;;;;;;4951725;28;20059;-74
2021/07/29 02:28:12;;;;;;;17.17;8.82;;;14.70;99.90;;;;;;4980555;28;20054;-74
2021/07/29 02:30:39;;;;;;;13.85;8.80;;;14.80;99.90;;;;;;4982118;28;20065;-74
2021/07/29 02:33:06;;;;;;;14.68;8.63;;;14.90;99.90;;;;;;4981110;28;20054;-74
2021/07/29 02:35:33;;;;;;;17.00;9.52;;;14.90;99.90;;;;;;4963220;28;20075;-75
2021/07/29 02:38:00;;;;;;;14.35;8.82;;;14.80;99.90;;;;;;4976894;28;20054;-75
2021/07/29 02:40:27;;;;;;;13.85;8.98;;;14.80;99.90;;;;;;4984301;28;20054;-74
2021/07/29 02:42:54;;;;;;;10.10;7.13;;;14.80;99.90;;;;;;4967219;28;20452;-74
2021/07/29 02:45:20;;;;;;;11.95;7.97;;;14.80;99.90;;;;;;4949622;28;20062;-74
2021/07/29 02:47:47;;;;;;;14.80;8.10;;;14.80;99.90;;;;;;4974363;28;20046;-74
2021/07/29 02:50:14;;;;;;;11.38;8.10;;;14.70;99.90;;;;;;4969870;28;20090;-73
2021/07/29 02:52:41;;;;;;;14.18;7.40;;;14.70;99.90;;;;;;4968633;28;20053;-74
2021/07/29 02:55:08;;;;;;;11.98;8.07;;;14.70;99.90;;;;;;4967985;28;20050;-73
2021/07/29 02:57:36;;;;;;;13.05;8.20;;;14.70;99.90;;;;;;4966680;28;20045;-73
2021/07/29 03:00:04;;;;;;;11.38;8.00;;;14.60;99.90;;;;;;4967748;28;20054;-74
2021/07/29 03:02:31;;;;;;;11.25;7.30;;;14.60;99.90;;;;;;4966778;28;20047;-75
2021/07/29 03:04:58;;;;;;;13.18;7.05;;;14.60;99.90;;;;;;4948607;28;20057;-75
2021/07/29 03:07:26;;;;;;;10.55;7.13;;;14.50;99.90;;;;;;4965985;28;20106;-76
2021/07/29 03:09:53;;;;;;;10.20;6.65;;;14.50;99.90;;;;;;4967030;28;20047;-74
2021/07/29 03:12:20;;;;;;;11.82;6.50;;;14.50;99.90;;;;;;4968940;28;20377;-75
2021/07/29 03:14:47;;;;;;;9.48;5.90;;;14.40;99.90;;;;;;4965461;28;20153;-75
2021/07/29 03:17:13;;;;;;;6.82;5.65;;;14.40;99.90;;;;;;4964355;28;20051;-75
2021/07/29 03:19:40;;;;;;;8.40;5.63;;;14.30;99.90;;;;;;4981380;28;20050;-75
2021/07/29 03:22:07;;;;;;;8.20;5.38;;;14.20;99.90;;;;;;4986080;28;20042;-74
2021/07/29 03:24:34;;;;;;;8.60;5.78;;;14.10;99.90;;;;;;4985600;28;20219;-73
2021/07/29 03:27:01;;;;;;;12.88;5.70;;;14.10;99.90;;;;;;4986732;28;20057;-76
2021/07/29 03:29:29;;;;;;;7.47;5.38;;;14.10;99.90;;;;;;4982037;28;20062;-75
2021/07/29 03:31:55;;;;;;;7.05;5.35;;;14.00;99.90;;;;;;4985768;28;20055;-75
2021/07/29 03:34:22;;;;;;;10.35;5.45;;;14.00;99.90;;;;;;4973337;28;20055;-76
2021/07/29 03:36:49;;;;;;;6.22;4.47;;;14.00;99.90;;;;;;4966521;28;20146;-75
2021/07/29 03:39:16;;;;;;;10.23;5.05;;;14.00;99.90;;;;;;4985141;28;20061;-75
2021/07/29 03:41:42;;;;;;;7.57;4.78;;;14.00;99.90;;;;;;4956067;28;20046;-75
2021/07/29 03:44:09;;;;;;;8.27;4.93;;;14.00;99.90;;;;;;4966340;28;20082;-75
2021/07/29 03:46:36;;;;;;;5.40;4.47;;;14.00;99.90;;;;;;4964819;28;20062;-74
2021/07/29 03:49:03;;;;;;;8.73;4.65;;;14.00;99.90;;;;;;4965065;28;20062;-75
2021/07/29 03:51:30;;;;;;;8.57;4.90;;;14.00;99.90;;;;;;4984632;28;20058;-73
2021/07/29 03:53:57;;;;;;;5.63;4.15;;;14.00;99.90;;;;;;4983643;28;20061;-72
2021/07/29 03:56:24;;;;;;;5.97;3.83;;;13.90;99.90;;;;;;4969447;28;20054;-72
2021/07/29 03:58:51;;;;;;;4.80;3.63;;;13.90;99.90;;;;;;4962018;28;20116;-71
2021/07/29 04:01:18;;;;;;;4.43;3.65;;;13.90;99.90;;;;;;4961107;28;20121;-72
2021/07/29 04:03:47;;;;;;;5.50;3.60;;;13.80;99.90;;;;;;4965599;28;20571;-73
2021/07/29 04:06:17;;;;;;;6.85;3.58;;;13.80;99.90;;;;;;4964149;28;20428;-72
2021/07/29 04:08:44;;;;;;;6.10;3.58;;;13.80;99.90;;;;;;4956596;28;20061;-73
2021/07/29 04:11:11;;;;;;;4.38;3.20;;;13.70;99.90;;;;;;4977653;28;20051;-72
2021/07/29 04:13:38;;;;;;;5.28;3.47;;;13.60;99.90;;;;;;4973731;28;20043;-72
2021/07/29 04:16:04;;;;;;;5.80;3.70;;;13.70;99.90;;;;;;4967898;28;20050;-72
2021/07/29 04:18:32;;;;;;;6.30;3.80;;;13.60;99.90;;;;;;4969284;28;20291;-73
2021/07/29 04:20:59;;;;;;;4.53;3.17;;;13.60;99.90;;;;;;4983596;28;20054;-72
2021/07/29 04:23:26;;;;;;;7.38;3.88;;;13.60;99.90;;;;;;4982898;28;20053;-71
2021/07/29 04:25:53;;;;;;;6.53;3.55;;;13.60;99.90;;;;;;4974483;28;20050;-72
2021/07/29 04:28:20;;;;;;;5.07;2.95;;;13.60;99.90;;;;;;4963037;28;20113;-73
2021/07/29 04:30:47;;;;;;;6.65;3.30;;;13.60;99.90;;;;;;4983860;28;20062;-71
2021/07/29 04:33:14;;;;;;;8.30;3.35;;;13.70;99.90;;;;;;4964333;28;20059;-72
2021/07/29 04:35:40;;;;;;;6.60;3.55;;;13.70;99.90;;;;;;4964222;28;20054;-72
2021/07/29 04:38:07;;;;;;;5.65;2.83;;;13.80;99.90;;;;;;4965258;28;20129;-71
2021/07/29 04:40:34;;;;;;;5.80;3.10;;;13.80;99.90;;;;;;4975858;28;20039;-71
2021/07/29 04:43:01;;;;;;;5.63;2.70;;;13.80;99.90;;;;;;4963408;28;20404;-71
2021/07/29 04:45:27;;;;;;;7.88;3.45;;;13.90;99.90;;;;;;4964272;28;20730;-71
2021/07/29 04:47:54;;;;;;;5.20;3.45;;;13.90;99.90;;;;;;4967806;28;20054;-74
2021/07/29 04:50:21;;;;;;;6.18;3.28;;;13.90;99.90;;;;;;4974291;28;20050;-72
2021/07/29 04:52:52;;;;;;;8.57;3.03;;;13.90;99.90;;;;;;4950280;28;20058;-71
2021/07/29 04:55:20;;;;;;;5.85;3.60;;;14.00;99.90;;;;;;4965700;28;20054;-73
2021/07/29 04:57:47;;;;;;;4.78;3.70;;;14.00;99.90;;;;;;4963510;28;20058;-70
2021/07/29 05:00:14;;;;;;;7.40;3.42;;;14.10;99.90;;;;;;4970946;28;20046;-72
2021/07/29 05:02:40;;;;;;;7.60;4.40;;;14.10;99.90;;;;;;4967206;28;20113;-72
2021/07/29 05:05:08;;;;;;;6.22;3.08;;;14.10;99.90;;;;;;4961819;28;20375;-73
2021/07/29 05:07:35;;;;;;;8.65;3.33;;;14.20;99.90;;;;;;4965214;28;20461;-71
2021/07/29 05:10:02;;;;;;;5.93;3.28;;;14.20;99.90;;;;;;4980500;28;20054;-72
2021/07/29 05:12:29;;;;;;;6.40;3.38;;;14.20;99.90;;;;;;4964457;28;20066;-72
2021/07/29 05:14:56;;;;;;;6.50;3.55;;;14.20;99.90;;;;;;4963781;28;20129;-71
2021/07/29 05:17:24;;;;;;;6.07;3.67;;;14.30;99.90;;;;;;4962544;28;20066;-71
2021/07/29 05:19:51;;;;;;;7.60;3.40;;;14.30;99.90;;;;;;4978424;28;20530;-72
2021/07/29 05:22:18;;;;;;;8.10;3.28;;;14.30;99.90;;;;;;4965910;28;20390;-72
2021/07/29 05:24:44;;;;;;;7.07;3.58;;;14.40;99.90;;;;;;4969582;28;20030;-71
2021/07/29 05:27:11;;;;;;;6.47;3.85;;;14.50;99.90;;;;;;4969749;28;20539;-72
2021/07/29 05:29:38;;;;;;;9.45;3.95;;;14.50;99.90;;;;;;4974126;28;20055;-72
2021/07/29 05:32:05;;;;;;;7.93;3.83;;;14.50;99.90;;;;;;4967375;28;20054;-71
2021/07/29 05:34:33;;;;;;;6.75;3.30;;;14.50;99.90;;;;;;4963613;28;20557;-72
2021/07/29 05:36:59;;;;;;;6.47;3.65;;;14.60;99.90;;;;;;4947051;28;20053;-72
2021/07/29 05:39:26;;;;;;;4.75;3.53;;;14.70;99.90;;;;;;4966236;28;20050;-71
2021/07/29 05:41:53;;;;;;;6.28;3.53;;;14.80;99.90;;;;;;4969854;28;20054;-71
2021/07/29 05:44:20;;;;;;;5.22;3.65;;;14.90;99.90;;;;;;4964626;28;20078;-72
2021/07/29 05:46:47;;;;;;;7.18;3.13;;;14.90;99.90;;;;;;4964269;28;20482;-71
2021/07/29 05:49:14;;;;;;;10.27;3.83;;;15.00;99.90;;;;;;4946819;28;20518;-71
2021/07/29 05:51:40;;;;;;;4.78;3.03;;;15.00;99.90;;;;;;4963132;28;20570;-71
2021/07/29 05:54:07;;;;;;;9.60;3.85;;;14.90;99.90;;;;;;4947390;28;20350;-71
2021/07/29 05:56:34;;;;;;;8.13;3.33;;;15.00;99.90;;;;;;4960965;28;20051;-71
2021/07/29 05:59:01;;;;;;;7.55;3.28;;;15.00;99.90;;;;;;4959871;28;20047;-71
2021/07/29 06:01:27;;;;;;;6.03;3.53;;;15.00;99.90;;;;;;4968460;28;20330;-71
2021/07/29 06:03:55;;;;;;;8.07;3.75;;;15.10;99.90;;;;;;4969104;28;20139;-70
2021/07/29 06:06:22;;;;;;;5.32;3.60;;;15.30;99.90;;;;;;4964808;28;20051;-72
2021/07/29 06:08:52;;;;;;;10.88;4.45;;;15.60;99.90;;;;;;4961998;28;20114;-72
2021/07/29 06:11:19;;;;;;;7.93;4.13;;;15.80;99.90;;;;;;4976273;28;20101;-70
2021/07/29 06:13:45;;;;;;;7.63;3.55;;;16.00;99.90;;;;;;4987505;28;20550;-71
2021/07/29 06:16:12;;;;;;;4.80;3.40;;;16.20;99.90;;;;;;4984631;28;20056;-71
2021/07/29 06:18:48;;;;;;;7.05;4.10;;;16.40;99.90;;;;;;4970110;28;20075;-71
2021/07/29 06:21:15;;;;;;;6.70;3.40;;;16.30;99.90;;;;;;4967545;28;20050;-70
2021/07/29 06:23:41;;;;;;;8.10;3.60;;;16.50;99.90;;;;;;4969224;28;20062;-71
2021/07/29 06:26:10;;;;;;;5.32;3.53;;;16.80;99.90;;;;;;4952098;28;20055;-72
2021/07/29 06:28:37;;;;;;;7.32;4.07;;;16.90;99.90;;;;;;4985864;28;20058;-71
2021/07/29 06:31:04;;;;;;;6.50;3.90;;;16.70;99.90;;;;;;4972583;28;20050;-71
2021/07/29 06:33:30;;;;;;;5.43;3.88;;;16.50;99.90;;;;;;4969149;28;20050;-71
2021/07/29 06:36:03;;;;;;;6.07;4.03;;;16.40;99.90;;;;;;4967689;28;20050;-71
2021/07/29 06:38:31;;;;;;;6.30;4.32;;;16.30;99.90;;;;;;4978194;28;20042;-72
2021/07/29 06:40:57;;;;;;;6.65;2.88;;;16.20;99.90;;;;;;4973798;28;20047;-72
2021/07/29 06:43:25;;;;;;;5.80;3.25;;;16.30;99.90;;;;;;4985011;28;20513;-72
2021/07/29 06:45:51;;;;;;;7.60;4.00;;;16.30;99.90;;;;;;4987217;28;20050;-72
2021/07/29 06:48:18;;;;;;;7.65;3.50;;;16.40;99.90;;;;;;4969413;28;20046;-74
2021/07/29 06:50:45;;;;;;;4.03;3.10;;;16.40;99.90;;;;;;4988392;28;20353;-77
2021/07/29 06:53:12;;;;;;;5.40;3.33;;;16.40;99.90;;;;;;4985587;28;20510;-75
2021/07/29 06:55:39;;;;;;;5.40;3.67;;;16.40;99.90;;;;;;4962493;28;20046;-74
2021/07/29 06:58:05;;;;;;;4.28;3.88;;;16.30;99.90;;;;;;4986804;28;20112;-75
2021/07/29 07:00:32;;;;;;;7.93;3.90;;;16.20;99.90;;;;;;4965665;28;20081;-74
2021/07/29 07:02:59;;;;;;;7.95;3.83;;;16.30;99.90;;;;;;4966224;28;20050;-75
2021/07/29 07:05:27;;;;;;;4.25;3.80;;;16.20;99.90;;;;;;4965690;28;20064;-76
2021/07/29 07:07:54;;;;;;;7.63;4.05;;;16.30;99.90;;;;;;4967774;28;20050;-76
2021/07/29 07:10:20;;;;;;;9.65;4.50;;;16.30;99.90;;;;;;4983439;28;20419;-75
2021/07/29 07:12:48;;;;;;;6.80;4.32;;;16.40;99.90;;;;;;4963128;28;20487;-76
2021/07/29 07:15:15;;;;;;;6.60;5.35;;;16.60;99.90;;;;;;4969300;28;20566;-75
2021/07/29 07:17:42;;;;;;;7.65;4.43;;;16.80;99.90;;;;;;4986441;28;20061;-75
2021/07/29 07:20:09;;;;;;;9.27;4.40;;;17.00;99.90;;;;;;4985918;28;20054;-75
2021/07/29 07:22:36;;;;;;;5.00;4.50;;;17.10;99.90;;;;;;4968524;28;20050;-77
2021/07/29 07:25:03;;;;;;;5.95;4.50;;;17.30;99.90;;;;;;4969408;28;20054;-77
2021/07/29 07:27:30;;;;;;;6.15;4.80;;;17.20;99.90;;;;;;4978465;28;20757;-76
2021/07/29 07:29:57;;;;;;;5.03;4.47;;;17.00;99.90;;;;;;4971244;28;20443;-78
2021/07/29 07:32:23;;;;;;;5.18;4.63;;;17.00;99.90;;;;;;4967396;28;20251;-76
2021/07/29 07:34:50;;;;;;;5.30;4.80;;;17.10;99.90;;;;;;4950003;28;20074;-76
2021/07/29 07:37:20;;;;;;;6.18;5.60;;;17.50;99.90;;;;;;4953266;28;20554;-75
2021/07/29 07:39:48;;;;;;;5.88;4.80;;;17.50;99.90;;;;;;4984931;28;20046;-75
2021/07/29 07:42:15;;;;;;;5.35;4.80;;;17.50;99.90;;;;;;4976569;28;20034;-78
2021/07/29 07:44:42;;;;;;;7.13;4.60;;;17.20;99.90;;;;;;4952901;28;20093;-76
2021/07/29 07:47:09;;;;;;;7.45;4.63;;;17.00;99.90;;;;;;4981564;28;20046;-76
2021/07/29 07:49:38;;;;;;;5.28;4.35;;;16.90;99.90;;;;;;4946805;28;20451;-75
2021/07/29 07:52:09;;;;;;;9.43;4.65;;;17.10;99.90;;;;;;4945863;28;20102;-76
2021/07/29 07:54:36;;;;;;;5.07;4.50;;;17.00;99.90;;;;;;4948182;28;20055;-75
2021/07/29 07:57:06;;;;;;;11.60;5.53;;;16.70;99.90;;;;;;4966618;28;20057;-74
2021/07/29 07:59:38;;;;;;;7.82;5.45;;;16.60;99.90;;;;;;4968617;28;20039;-75
2021/07/29 08:02:06;;;;;;;7.13;4.40;;;17.00;99.90;;;;;;4947559;28;20141;-75
2021/07/29 08:04:33;;;;;;;6.05;5.18;;;17.20;99.90;;;;;;4965488;28;20039;-76
2021/07/29 08:07:00;;;;;;;9.00;6.28;;;17.10;99.90;;;;;;4967546;28;20110;-76
2021/07/29 08:09:27;;;;;;;8.32;6.38;;;17.30;99.90;;;;;;4979946;28;20478;-78
2021/07/29 08:11:54;;;;;;;6.30;5.82;;;17.30;99.90;;;;;;4970966;28;20760;-77
2021/07/29 08:14:20;;;;;;;7.20;6.53;;;17.10;99.90;;;;;;4953355;28;20101;-77
2021/07/29 08:16:47;;;;;;;7.80;6.97;;;17.40;99.90;;;;;;4936687;28;20264;-77
2021/07/29 08:19:14;;;;;;;7.95;7.25;;;17.40;99.90;;;;;;4965853;28;20471;-76
2021/07/29 08:21:41;;;;;;;7.95;7.45;;;17.50;99.90;;;;;;4949263;28;20042;-76
2021/07/29 08:24:08;;;;;;;7.93;7.38;;;17.90;99.90;;;;;;4930779;29;20047;-76
2021/07/29 08:26:35;;;;;;;8.98;8.15;;;18.00;99.90;;;;;;4962250;28;20047;-75
2021/07/29 08:29:02;;;;;;;9.38;8.20;;;18.10;99.90;;;;;;4968776;28;20058;-77
2021/07/29 08:31:29;;;;;;;10.40;9.60;;;18.10;99.90;;;;;;4948823;28;20050;-76
2021/07/29 08:33:56;;;;;;;9.40;8.70;;;18.00;99.90;;;;;;4965401;28;20515;-76
2021/07/29 08:36:23;;;;;;;11.77;10.60;;;18.10;99.90;;;;;;4966901;28;20054;-77
2021/07/29 08:38:49;;;;;;;10.73;9.82;;;18.40;99.90;;;;;;4971507;28;20055;-75
2021/07/29 08:41:17;;;;;;;9.70;9.00;;;18.90;99.90;;;;;;4974703;28;20035;-75
2021/07/29 08:43:45;;;;;;;10.93;9.88;;;19.20;99.90;;;;;;4980620;28;20129;-75
2021/07/29 08:46:20;;;;;;;10.40;9.70;;;19.30;99.90;;;;;;4967238;28;20042;-76
2021/07/29 08:48:49;;;;;;;12.65;10.15;;;19.40;99.90;;;;;;4985736;28;20058;-75
2021/07/29 08:51:19;;;;;;;11.50;10.50;;;19.60;99.90;;;;;;4966833;28;20054;-75
2021/07/29 08:53:53;;;;;;;10.98;10.00;;;19.50;99.90;;;;;;4955558;28;20075;-76
2021/07/29 08:56:23;;;;;;;11.57;10.43;;;19.30;99.90;;;;;;4965085;28;20304;-77
2021/07/29 08:58:52;;;;;;;11.43;10.27;;;18.90;99.90;;;;;;4967900;28;20134;-76
2021/07/29 09:01:19;;;;;;;11.63;10.63;;;18.80;99.90;;;;;;4965905;28;20058;-78
2021/07/29 09:03:52;;;;;;;10.30;9.63;;;19.20;99.90;;;;;;4966155;28;20070;-77
2021/07/29 09:06:19;;;;;;;10.00;9.40;;;19.50;99.90;;;;;;4967365;28;20054;-78
2021/07/29 09:08:48;;;;;;;10.32;9.45;;;19.80;99.90;;;;;;4965241;28;20063;-77
2021/07/29 09:11:38;;;;;;;10.15;9.20;;;19.50;99.90;;;;;;4973624;28;20129;-76
2021/07/29 09:14:16;;;;;;;10.10;9.25;;;18.80;99.90;;;;;;4945556;28;20443;-77
2021/07/29 09:16:56;;;;;;;9.82;9.13;;;18.50;99.90;;;;;;4959954;28;20051;-75
2021/07/29 09:19:32;;;;;;;9.60;8.85;;;18.60;99.90;;;;;;4946912;29;20043;-76
2021/07/29 09:22:24;;;;;;;9.10;8.32;;;18.50;99.90;;;;;;4953552;28;20104;-75
2021/07/29 09:25:13;;;;;;;8.85;7.97;;;18.30;99.90;;;;;;4970069;28;20072;-78
2021/07/29 09:27:39;;;;;;;9.23;8.25;;;18.30;99.90;;;;;;4968266;28;20462;-74
2021/07/29 09:30:17;;;;;;;9.25;8.65;;;18.20;99.90;;;;;;4977125;28;20130;-72
2021/07/29 09:33:05;;;;;;;9.40;8.80;;;18.10;99.90;;;;;;4947727;28;20078;-73
2021/07/29 09:35:31;;;;;;;9.23;8.50;;;18.00;99.90;;;;;;4962593;28;20050;-72
2021/07/29 09:38:00;;;;;;;9.68;8.90;;;18.30;99.90;;;;;;4965040;28;20072;-73
2021/07/29 09:40:39;;;;;;;11.95;9.07;;;18.30;99.90;;;;;;4967247;28;20043;-73
2021/07/29 09:43:09;;;;;;;8.65;7.93;;;18.30;99.90;;;;;;4979170;28;20058;-73
2021/07/29 09:45:36;;;;;;;10.60;10.00;;;18.30;99.90;;;;;;4981926;28;20046;-72
2021/07/29 09:48:06;;;;;;;10.25;9.65;;;18.50;99.90;;;;;;4985706;28;20058;-72
2021/07/29 09:50:34;;;;;;;10.63;9.93;;;19.00;99.90;;;;;;4970025;28;20414;-71
2021/07/29 09:53:02;;;;;;;10.85;10.02;;;19.50;99.90;;;;;;4977431;28;20054;-74
2021/07/29 09:55:30;;;;;;;11.55;10.23;;;19.50;99.90;;;;;;4967940;28;20043;-72
2021/07/29 09:57:59;;;;;;;11.18;10.43;;;19.80;99.90;;;;;;4970465;28;20047;-73
2021/07/29 10:00:27;;;;;;;9.30;8.38;;;19.90;99.90;;;;;;4970862;28;20127;-73
2021/07/29 10:02:55;;;;;;;11.13;9.65;;;20.00;99.90;;;;;;4977312;28;20047;-73
2021/07/29 10:05:34;;;;;;;9.32;8.68;;;19.80;99.90;;;;;;4968965;28;20054;-73
2021/07/29 10:08:05;;;;;;;9.38;8.50;;;20.00;99.90;;;;;;4988288;28;20140;-73
2021/07/29 10:10:32;;;;;;;8.50;7.85;;;19.70;99.90;;;;;;4988383;28;20058;-73
2021/07/29 10:12:59;;;;;;;9.40;8.80;;;19.30;99.90;;;;;;4977969;28;20054;-73
2021/07/29 10:15:42;;;;;;;9.20;8.57;;;18.90;99.90;;;;;;4968023;28;20058;-73
2021/07/29 10:18:10;;;;;;;9.85;8.50;;;18.80;99.90;;;;;;4966285;28;20110;-72
2021/07/29 10:20:39;;;;;;;8.52;7.90;;;18.80;99.90;;;;;;4967439;28;20105;-73
2021/07/29 10:23:26;;;;;;;9.02;8.15;;;18.80;99.90;;;;;;4973617;28;20150;-73
2021/07/29 10:25:53;;;;;;;9.00;8.20;;;18.70;99.90;;;;;;4948235;28;20504;-73
2021/07/29 10:28:22;;;;;;;9.20;8.30;;;18.80;99.90;;;;;;4949159;29;20527;-72
2021/07/29 10:30:53;;;;;;;8.65;8.02;;;18.70;99.90;;;;;;4965399;28;20547;-73
2021/07/29 10:33:23;;;;;;;9.57;9.00;;;18.80;99.90;;;;;;4967060;28;20058;-72
2021/07/29 10:35:51;;;;;;;10.20;9.35;;;18.80;99.90;;;;;;4950377;28;20085;-73
2021/07/29 10:38:51;;;;;;;10.85;10.13;;;19.20;99.90;;;;;;4951897;28;20047;-73
2021/07/29 10:41:23;;;;;;;8.77;8.27;;;19.50;99.90;;;;;;4933466;28;20130;-73
2021/07/29 10:43:51;;;;;;;10.55;9.75;;;19.40;99.90;;;;;;4974248;28;20491;-73
2021/07/29 10:46:18;;;;;;;10.88;10.18;;;19.40;99.90;;;;;;4987264;28;20050;-73
2021/07/29 10:48:46;;;;;;;11.55;10.60;;;19.90;99.90;;;;;;4986198;28;20132;-73
2021/07/29 10:51:19;;;;;;;9.77;9.10;;;20.20;99.90;;;;;;4982790;28;20575;-73
2021/07/29 10:53:47;;;;;;;10.88;9.77;;;20.40;99.90;;;;;;4976709;28;20526;-73
2021/07/29 10:56:16;;;;;;;10.95;10.40;;;20.50;99.90;;;;;;4974206;28;20401;-73
2021/07/29 10:58:48;;;;;;;11.32;10.30;;;20.70;99.90;;;;;;4967334;28;20058;-73
2021/07/29 11:01:17;;;;;;;9.82;8.93;;;20.90;99.90;;;;;;4946348;28;20346;-72
2021/07/29 11:03:50;;;;;;;9.68;8.93;;;20.60;99.90;;;;;;4966382;28;20109;-73
2021/07/29 11:06:37;;;;;;;8.95;8.40;;;20.10;99.90;;;;;;4947648;28;20051;-73
2021/07/29 11:09:20;;;;;;;9.63;8.68;;;19.80;99.90;;;;;;4946690;29;20117;-73
2021/07/29 11:11:49;;;;;;;9.70;9.05;;;19.50;99.90;;;;;;4930873;29;20063;-73
2021/07/29 11:14:33;;;;;;;11.13;10.20;;;19.40;99.90;;;;;;4950378;28;20519;-73
2021/07/29 11:17:01;;;;;;;9.73;9.00;;;19.70;99.90;;;;;;4983885;28;20611;-73
2021/07/29 11:19:29;;;;;;;9.80;9.13;;;20.20;99.90;;;;;;4985754;28;20046;-72
2021/07/29 11:22:04;;;;;;;8.95;7.95;;;20.40;99.90;;;;;;4980244;28;20340;-72
2021/07/29 11:24:31;;;;;;;9.40;9.00;;;20.30;99.90;;;;;;4978302;28;20050;-72
2021/07/29 11:26:59;;;;;;;11.20;10.38;;;20.00;99.90;;;;;;4985047;28;20399;-73
2021/07/29 11:29:26;;;;;;;10.98;9.93;;;19.90;99.90;;;;;;4982561;28;20054;-73
2021/07/29 11:31:56;;;;;;;9.30;8.55;;;20.20;99.90;;;;;;4964942;28;20070;-73
2021/07/29 11:34:32;;;;;;;9.77;9.07;;;20.30;99.90;;;;;;4967054;28;20054;-72
2021/07/29 11:37:00;;;;;;;10.35;9.50;;;19.90;99.90;;;;;;4966922;28;20392;-73
2021/07/29 11:39:41;;;;;;;10.18;8.98;;;19.70;99.90;;;;;;4986571;28;20061;-72
2021/07/29 11:42:07;;;;;;;10.18;9.38;;;19.70;99.90;;;;;;4986316;28;20051;-73
2021/07/29 11:44:41;;;;;;;10.13;9.25;;;19.70;99.90;;;;;;4986130;28;20243;-73
2021/07/29 11:47:08;;;;;;;8.95;8.07;;;19.40;99.90;;;;;;4968052;28;20047;-72
2021/07/29 11:49:49;;;;;;;8.48;7.57;;;19.30;99.90;;;;;;4968871;28;20046;-73
2021/07/29 11:52:18;;;;;;;8.93;8.02;;;19.30;99.90;;;;;;4977082;28;20038;-72
2021/07/29 11:54:44;;;;;;;9.30;8.52;;;19.40;99.90;;;;;;4979289;28;20046;-73
2021/07/29 11:57:14;;;;;;;9.55;8.77;;;19.20;99.90;;;;;;4964966;28;20319;-72
2021/07/29 11:59:43;;;;;;;8.70;8.02;;;19.10;99.90;;;;;;4969359;28;20054;-72
2021/07/29 12:02:10;;;;;;;9.00;8.20;;;19.00;99.90;;;;;;4965494;28;20149;-72
2021/07/29 12:04:41;;;;;;;8.82;8.00;;;18.90;99.90;;;;;;4963845;28;20042;-73
2021/07/29 12:07:09;;;;;;;8.55;7.75;;;18.90;99.90;;;;;;4977449;28;20050;-73
2021/07/29 12:09:42;;;;;;;8.60;7.90;;;18.90;99.90;;;;;;4985269;28;20527;-72
2021/07/29 12:12:10;;;;;;;10.88;8.63;;;18.80;99.90;;;;;;4982667;28;20050;-73
2021/07/29 12:14:42;;;;;;;10.65;9.88;;;19.00;99.90;;;;;;4986600;28;20050;-73
2021/07/29 12:17:20;;;;;;;9.40;8.60;;;19.20;99.90;;;;;;4973811;28;20495;-73
2021/07/29 12:19:55;;;;;;;9.47;8.80;;;19.30;99.90;;;;;;4947048;28;20227;-72
2021/07/29 12:22:28;;;;;;;9.30;7.95;;;19.40;99.90;;;;;;4969712;28;20340;-74
2021/07/29 12:24:59;;;;;;;9.32;8.65;;;19.40;99.90;;;;;;4981049;28;20407;-74
2021/07/29 12:27:27;;;;;;;11.65;10.63;;;19.60;99.90;;;;;;4983655;28;20054;-73
2021/07/29 12:29:53;;;;;;;9.70;8.80;;;19.60;99.90;;;;;;4977545;28;20286;-73
2021/07/29 12:32:29;;;;;;;8.73;8.02;;;20.00;99.90;;;;;;4963620;28;20043;-73
2021/07/29 12:34:56;;;;;;;9.40;8.60;;;20.00;99.90;;;;;;4965437;28;20089;-74
2021/07/29 12:37:31;;;;;;;11.18;10.52;;;19.90;99.90;;;;;;4968809;28;20050;-73
2021/07/29 12:40:00;;;;;;;9.40;8.65;;;20.00;99.90;;;;;;4970090;28;20134;-73
2021/07/29 12:42:29;;;;;;;10.82;10.00;;;20.30;99.90;;;;;;4964661;28;20089;-73
2021/07/29 12:45:07;;;;;;;10.13;9.18;;;20.10;99.90;;;;;;4949204;28;20121;-73
2021/07/29 12:47:34;;;;;;;10.93;9.82;;;20.20;99.90;;;;;;4966736;28;20438;-74
2021/07/29 12:50:02;;;;;;;11.77;9.23;;;20.50;99.90;;;;;;4951934;28;20515;-73
2021/07/29 12:52:28;;;;;;;8.98;8.35;;;20.70;99.90;;;;;;4973722;28;20038;-73